TAF LFQA
METAR LFQA
LFQA 280900Z AUTO 33014KT 9999 OVC025 04/02 Q0998=
LFQA 280830Z AUTO 32010KT 9999 FEW014 OVC027 04/03 Q0998=
LFQA 280800Z AUTO 31013KT 9999 SCT015 OVC027 04/03 Q0997=
LFQA 280730Z AUTO 30010KT 9999 OVC012 04/03 Q0997=
LFQA 280700Z AUTO 31008KT 9999 BKN013 BKN020 OVC026 04/03 Q0997=
WC LFQA
WS LFQA
WV LFQA